KTTN/TTN METAR and TAF weather

Enter ICAO airport designator
Station Type Date Time Source
KTTN METAR 2019/02/17 15:53 UTC NOAA

KTTN 171553Z 14006KT 10SM CLR 02/M08 A3015 RMK AO2 SLP205 T00221083


Station Type Date Time Source
KTTN Decoded METAR 2019/02/17 15:53 UTC NOAA

TRENTON MERCER COUNTY AIRPORT , NJ, United States (KTTN) 40-17N 074-49W 59M
Feb 17, 2019 - 10:53 AM EST / 2019.02.17 1553 UTC
Wind: from the SE (140 degrees) at 7 MPH (6 KT):0
Visibility: 10 mile(s):0
Sky conditions: clear
Temperature: 36.0 F (2.2 C)
Dew Point: 17.1 F (-8.3 C)
Relative Humidity: 45%
Pressure (altimeter): 30.15 in. Hg (1020 hPa)
ob: KTTN 171553Z 14006KT 10SM CLR 02/M08 A3015 RMK AO2 SLP205 T00221083
cycle: 16

Station Type Date Time Source
KTTN TAF 2019/02/17 12:28 UTC NOAA

TAF KTTN 171126Z 1712/1812 VRB04KT P6SM SKC
FM172000 VRB04KT P6SM SCT070 BKN150
FM180300 11005KT 3SM -SNRA OVC008
FM180600 10005KT 2SM -RA BR OVC008
FM181100 VRB03KT 2SM -RA BR OVC003


Example: see airport list